Seaboard Ranger — A8RF7 — position and weather

sailwx.info

Track history (hours):
 
Tides and Currents Weather Stations Pressure Air Temp Water Temp Dewpoint Dewpoint Depression Visibility Wind Speed Wind Dir Waves Ship Positions

Seaboard Ranger

Last reported at 2017-Oct-17 10:10 UTC. Time now 2017-Oct-19 23:52 UTC.
Position N 25°27' W 079°37'.

Length 148 m; draft 8.2 m.

Type: Ship. MMSI: 636091654.

Date/timePositionNaut miles runAvg speedWind from/ knotsBaromVisibWave heightAir tempDewpointWater temp
2017-Oct-17 10:10N 25°27' W 079°37'315.2
2017-Oct-17 10:00N 25°30' W 079°37'715.0
2017-Oct-17 09:30N 25°37' W 079°39'714.4
2017-Oct-17 09:01N 25°44' W 079°41'815.4
2017-Oct-17 08:30N 25°45' W 079°50'815.8
2017-Oct-17 08:00N 25°45' W 079°59'713.1
2017-Oct-17 07:30N 25°46' W 080°06'4 7.7
2017-Oct-17 07:01N 25°46' W 080°10'0 0.2
2017-Oct-17 06:28N 25°46' W 080°10'0 0.0
2017-Oct-17 05:57N 25°46' W 080°10'0 0.0
2017-Oct-17 05:30N 25°46' W 080°10'0 0.0
2017-Oct-17 05:00N 25°46' W 080°10'0 0.0
2017-Oct-17 04:30N 25°46' W 080°10'0 0.0
2017-Oct-17 03:57N 25°46' W 080°10'0 0.0
2017-Oct-17 03:14N 25°46' W 080°10'0 0.0
2017-Oct-17 02:59N 25°46' W 080°10'0 0.0
2017-Oct-17 02:29N 25°46' W 080°10'0 0.0
2017-Oct-17 01:59N 25°46' W 080°10'0 0.0
2017-Oct-17 01:28N 25°46' W 080°10'0 0.0
2017-Oct-17 00:58N 25°46' W 080°10'0 0.0
2017-Oct-17 00:28N 25°46' W 080°10'0 0.0
2017-Oct-16 23:58N 25°46' W 080°10'0 0.0
2017-Oct-16 23:28N 25°46' W 080°10'0 0.0
2017-Oct-16 23:00N 25°46' W 080°10'0 0.0
2017-Oct-16 22:30N 25°46' W 080°10'0 0.0
2017-Oct-16 22:00N 25°46' W 080°10'0 0.0
2017-Oct-16 21:30N 25°46' W 080°10'0 0.0
2017-Oct-16 21:00N 25°46' W 080°10'0 0.0
2017-Oct-16 20:29N 25°46' W 080°10'0 0.0
2017-Oct-16 19:59N 25°46' W 080°10'0 0.0
2017-Oct-16 19:29N 25°46' W 080°10'0 0.0
2017-Oct-16 18:59N 25°46' W 080°10'0 0.0
2017-Oct-16 18:29N 25°46' W 080°10'0 0.0
2017-Oct-16 17:58N 25°46' W 080°10'0 0.0
2017-Oct-16 17:28N 25°46' W 080°10'0 0.0
2017-Oct-16 16:58N 25°46' W 080°10'0 0.0
2017-Oct-16 16:28N 25°46' W 080°10'0 0.0
2017-Oct-16 16:00N 25°46' W 080°10'0 0.2
2017-Oct-16 15:30N 25°46' W 080°10'3 6.9
2017-Oct-16 15:00N 25°46' W 080°06'7 7.5
2017-Oct-16 14:00N 25°42' W 079°59'917.4
2017-Oct-16 13:30N 25°33' W 079°57'918.0
2017-Oct-16 13:00N 25°25' W 079°53'  
2017-Oct-10 05:00N 25°31' W 079°39'1313.6
2017-Oct-10 04:04N 25°44' W 079°42'113.1
2017-Oct-10 04:00N 25°44' W 079°42'714.5
2017-Oct-10 03:30N 25°45' W 079°50'714.1
2017-Oct-10 03:00N 25°46' W 079°58'613.0
2017-Oct-10 02:31N 25°47' W 080°05'4 8.1
2017-Oct-10 02:00N 25°46' W 080°10'1 1.1
2017-Oct-10 01:30N 25°46' W 080°10'0 0.0
2017-Oct-10 00:59N 25°46' W 080°10'0 0.0
2017-Oct-10 00:29N 25°46' W 080°10'0 0.0
2017-Oct-09 23:59N 25°46' W 080°10'0 0.0
2017-Oct-09 23:29N 25°46' W 080°10'0 0.0
2017-Oct-09 22:56N 25°46' W 080°10'0 0.0
2017-Oct-09 22:28N 25°46' W 080°10'0 0.0
2017-Oct-09 21:58N 25°46' W 080°10'0 0.0
2017-Oct-09 21:25N 25°46' W 080°10'0 0.0
2017-Oct-09 20:58N 25°46' W 080°10'0 0.0
2017-Oct-09 20:27N 25°46' W 080°10'0 0.0
2017-Oct-09 20:00N 25°46' W 080°10'0 0.0
2017-Oct-09 19:30N 25°46' W 080°10'0 0.0
2017-Oct-09 18:57N 25°46' W 080°10'0 0.0
2017-Oct-09 18:30N 25°46' W 080°10'0 0.0
2017-Oct-09 17:59N 25°46' W 080°10'0 0.0
2017-Oct-09 17:29N 25°46' W 080°10'0 0.0
2017-Oct-09 16:59N 25°46' W 080°10'0 0.0
2017-Oct-09 16:29N 25°46' W 080°10'0 0.0
2017-Oct-09 15:56N 25°46' W 080°10'0 0.0
2017-Oct-09 15:28N 25°46' W 080°10'0 0.0
2017-Oct-09 14:58N 25°46' W 080°10'0 0.0
2017-Oct-09 14:25N 25°46' W 080°10'0 0.0
2017-Oct-09 13:58N 25°46' W 080°10'0 0.0
2017-Oct-09 13:31N 25°46' W 080°10'0 0.0
2017-Oct-09 13:00N 25°46' W 080°10'0 0.0
2017-Oct-09 12:30N 25°46' W 080°10'0 0.0
2017-Oct-09 12:00N 25°46' W 080°10'0 0.0
2017-Oct-09 11:30N 25°46' W 080°10'0 0.3
2017-Oct-09 11:00N 25°46' W 080°10'4 7.1
2017-Oct-09 10:30N 25°46' W 080°06'5 9.1
2017-Oct-09 10:00N 25°43' W 080°02'917.7
2017-Oct-09 09:30N 25°35' W 079°58'918.3
2017-Oct-09 09:00N 25°27' W 079°54'  
Track history (hours):
 
Tides and Currents Weather Stations Pressure Air Temp Water Temp Dewpoint Dewpoint Depression Visibility Wind Speed Wind Dir Waves Ship Positions

Seaboard Ranger

Last reported at 2017-Oct-17 10:10 UTC. Time now 2017-Oct-19 23:52 UTC.
Position N 25°27' W 079°37'.

Length 148 m; draft 8.2 m.

Type: Ship. MMSI: 636091654.

Date/timePositionNaut miles runAvg speedWind from/ knotsBaromVisibWave heightAir tempDewpointWater temp
2017-Oct-17 10:10N 25°27' W 079°37'315.2
2017-Oct-17 10:00N 25°30' W 079°37'715.0
2017-Oct-17 09:30N 25°37' W 079°39'714.4
2017-Oct-17 09:01N 25°44' W 079°41'815.4
2017-Oct-17 08:30N 25°45' W 079°50'815.8
2017-Oct-17 08:00N 25°45' W 079°59'713.1
2017-Oct-17 07:30N 25°46' W 080°06'4 7.7
2017-Oct-17 07:01N 25°46' W 080°10'0 0.2
2017-Oct-17 06:28N 25°46' W 080°10'0 0.0
2017-Oct-17 05:57N 25°46' W 080°10'0 0.0
2017-Oct-17 05:30N 25°46' W 080°10'0 0.0
2017-Oct-17 05:00N 25°46' W 080°10'0 0.0
2017-Oct-17 04:30N 25°46' W 080°10'0 0.0
2017-Oct-17 03:57N 25°46' W 080°10'0 0.0
2017-Oct-17 03:14N 25°46' W 080°10'0 0.0
2017-Oct-17 02:59N 25°46' W 080°10'0 0.0
2017-Oct-17 02:29N 25°46' W 080°10'0 0.0
2017-Oct-17 01:59N 25°46' W 080°10'0 0.0
2017-Oct-17 01:28N 25°46' W 080°10'0 0.0
2017-Oct-17 00:58N 25°46' W 080°10'0 0.0
2017-Oct-17 00:28N 25°46' W 080°10'0 0.0
2017-Oct-16 23:58N 25°46' W 080°10'0 0.0
2017-Oct-16 23:28N 25°46' W 080°10'0 0.0
2017-Oct-16 23:00N 25°46' W 080°10'0 0.0
2017-Oct-16 22:30N 25°46' W 080°10'0 0.0
2017-Oct-16 22:00N 25°46' W 080°10'0 0.0
2017-Oct-16 21:30N 25°46' W 080°10'0 0.0
2017-Oct-16 21:00N 25°46' W 080°10'0 0.0
2017-Oct-16 20:29N 25°46' W 080°10'0 0.0
2017-Oct-16 19:59N 25°46' W 080°10'0 0.0
2017-Oct-16 19:29N 25°46' W 080°10'0 0.0
2017-Oct-16 18:59N 25°46' W 080°10'0 0.0
2017-Oct-16 18:29N 25°46' W 080°10'0 0.0
2017-Oct-16 17:58N 25°46' W 080°10'0 0.0
2017-Oct-16 17:28N 25°46' W 080°10'0 0.0
2017-Oct-16 16:58N 25°46' W 080°10'0 0.0
2017-Oct-16 16:28N 25°46' W 080°10'0 0.0
2017-Oct-16 16:00N 25°46' W 080°10'0 0.2
2017-Oct-16 15:30N 25°46' W 080°10'3 6.9
2017-Oct-16 15:00N 25°46' W 080°06'7 7.5
2017-Oct-16 14:00N 25°42' W 079°59'917.4
2017-Oct-16 13:30N 25°33' W 079°57'918.0
2017-Oct-16 13:00N 25°25' W 079°53'  
2017-Oct-10 05:00N 25°31' W 079°39'1313.6
2017-Oct-10 04:04N 25°44' W 079°42'113.1
2017-Oct-10 04:00N 25°44' W 079°42'714.5
2017-Oct-10 03:30N 25°45' W 079°50'714.1
2017-Oct-10 03:00N 25°46' W 079°58'613.0
2017-Oct-10 02:31N 25°47' W 080°05'4 8.1
2017-Oct-10 02:00N 25°46' W 080°10'1 1.1
2017-Oct-10 01:30N 25°46' W 080°10'0 0.0
2017-Oct-10 00:59N 25°46' W 080°10'0 0.0
2017-Oct-10 00:29N 25°46' W 080°10'0 0.0
2017-Oct-09 23:59N 25°46' W 080°10'0 0.0
2017-Oct-09 23:29N 25°46' W 080°10'0 0.0
2017-Oct-09 22:56N 25°46' W 080°10'0 0.0
2017-Oct-09 22:28N 25°46' W 080°10'0 0.0
2017-Oct-09 21:58N 25°46' W 080°10'0 0.0
2017-Oct-09 21:25N 25°46' W 080°10'0 0.0
2017-Oct-09 20:58N 25°46' W 080°10'0 0.0
2017-Oct-09 20:27N 25°46' W 080°10'0 0.0
2017-Oct-09 20:00N 25°46' W 080°10'0 0.0
2017-Oct-09 19:30N 25°46' W 080°10'0 0.0
2017-Oct-09 18:57N 25°46' W 080°10'0 0.0
2017-Oct-09 18:30N 25°46' W 080°10'0 0.0
2017-Oct-09 17:59N 25°46' W 080°10'0 0.0
2017-Oct-09 17:29N 25°46' W 080°10'0 0.0
2017-Oct-09 16:59N 25°46' W 080°10'0 0.0
2017-Oct-09 16:29N 25°46' W 080°10'0 0.0
2017-Oct-09 15:56N 25°46' W 080°10'0 0.0
2017-Oct-09 15:28N 25°46' W 080°10'0 0.0
2017-Oct-09 14:58N 25°46' W 080°10'0 0.0
2017-Oct-09 14:25N 25°46' W 080°10'0 0.0
2017-Oct-09 13:58N 25°46' W 080°10'0 0.0
2017-Oct-09 13:31N 25°46' W 080°10'0 0.0
2017-Oct-09 13:00N 25°46' W 080°10'0 0.0
2017-Oct-09 12:30N 25°46' W 080°10'0 0.0
2017-Oct-09 12:00N 25°46' W 080°10'0 0.0
2017-Oct-09 11:30N 25°46' W 080°10'0 0.3
2017-Oct-09 11:00N 25°46' W 080°10'4 7.1
2017-Oct-09 10:30N 25°46' W 080°06'5 9.1
2017-Oct-09 10:00N 25°43' W 080°02'917.7
2017-Oct-09 09:30N 25°35' W 079°58'918.3
2017-Oct-09 09:00N 25°27' W 079°54'  

Dump ship's entire track history